createdAt,value
2018-04-25T00:00:48.290Z,14.50
2018-04-25T00:01:48.202Z,14.90
2018-04-25T00:03:41.475Z,15.20
2018-04-25T00:04:41.413Z,15.60
2018-04-25T00:06:34.811Z,14.90
2018-04-25T00:07:34.624Z,15.10
2018-04-25T00:09:27.901Z,15.50
2018-04-25T00:10:27.838Z,14.80
2018-04-25T00:12:21.132Z,15.50
2018-04-25T00:13:21.049Z,14.50
2018-04-25T00:15:14.343Z,15.30
2018-04-25T00:16:14.263Z,15.50
2018-04-25T00:18:07.535Z,16.10
2018-04-25T00:19:07.469Z,15.80
2018-04-25T00:21:00.766Z,15.10
2018-04-25T00:22:00.681Z,15.20
2018-04-25T00:23:53.955Z,16.00
2018-04-25T00:24:53.891Z,15.70
2018-04-25T00:26:47.184Z,15.10
2018-04-25T00:27:47.102Z,16.00
2018-04-25T00:29:40.376Z,16.20
2018-04-25T00:30:40.312Z,15.70
2018-04-25T00:32:33.607Z,15.30
2018-04-25T00:33:33.522Z,15.90
2018-04-25T00:35:26.814Z,15.00
2018-04-25T00:36:26.732Z,15.50
2018-04-25T00:38:20.010Z,15.90
2018-04-25T00:39:19.946Z,16.20
2018-04-25T00:41:13.243Z,15.20
2018-04-25T00:42:13.154Z,15.20
2018-04-25T00:44:06.429Z,15.40
2018-04-25T00:45:06.364Z,16.30
2018-04-25T00:46:59.649Z,17.40
2018-04-25T00:47:59.567Z,16.20
2018-04-25T00:49:52.841Z,15.70
2018-04-25T00:50:52.778Z,16.10
2018-04-25T00:52:46.071Z,15.70
2018-04-25T00:53:45.991Z,16.80
2018-04-25T00:55:39.390Z,16.70
2018-04-25T00:56:39.254Z,16.00
2018-04-25T00:58:33.527Z,17.00
2018-04-25T00:59:33.469Z,16.80
2018-04-25T01:01:26.758Z,16.30
2018-04-25T01:02:26.675Z,16.50
2018-04-25T01:04:19.949Z,16.70
2018-04-25T01:05:19.884Z,16.90
2018-04-25T01:07:13.169Z,16.60
2018-04-25T01:08:13.089Z,16.80
2018-04-25T01:10:06.361Z,16.70
2018-04-25T01:11:06.305Z,16.90
2018-04-25T01:12:59.703Z,16.10
2018-04-25T01:13:59.509Z,16.70
2018-04-25T01:15:52.804Z,16.60
2018-04-25T01:16:52.720Z,16.90
2018-04-25T01:18:45.994Z,17.40
2018-04-25T01:19:45.933Z,16.80
2018-04-25T01:21:39.227Z,17.00
2018-04-25T01:22:39.148Z,17.30
2018-04-25T01:24:32.419Z,17.00
2018-04-25T01:25:32.355Z,15.90
2018-04-25T01:27:25.644Z,17.10
2018-04-25T01:28:25.557Z,16.90
2018-04-25T01:30:18.937Z,16.80
2018-04-25T01:31:18.768Z,17.20
2018-04-25T01:33:12.062Z,16.30
2018-04-25T01:34:11.980Z,16.70
2018-04-25T01:36:05.336Z,16.60
2018-04-25T01:37:05.254Z,16.90
2018-04-25T01:38:58.529Z,17.00
2018-04-25T01:39:58.464Z,16.50
2018-04-25T01:41:51.757Z,16.30
2018-04-25T01:42:51.675Z,16.70
2018-04-25T01:44:44.950Z,15.70
2018-04-25T01:45:44.885Z,15.90
2018-04-25T01:47:38.170Z,15.80
2018-04-25T01:48:38.088Z,15.50
2018-04-25T01:50:31.362Z,16.00
2018-04-25T01:51:31.298Z,15.60
2018-04-25T01:53:24.591Z,14.80
2018-04-25T01:54:24.509Z,14.50
2018-04-25T01:56:17.803Z,15.00
2018-04-25T01:57:17.721Z,15.40
2018-04-25T01:59:10.998Z,15.20
2018-04-25T02:00:10.933Z,15.10
2018-04-25T02:02:04.233Z,15.70
2018-04-25T02:03:04.145Z,15.50
2018-04-25T02:04:57.419Z,14.90
2018-04-25T02:05:57.354Z,14.60
2018-04-25T02:07:50.764Z,14.30
2018-04-25T02:08:50.568Z,14.70
2018-04-25T02:10:43.950Z,14.60
2018-04-25T02:11:43.779Z,13.70
2018-04-25T02:13:37.072Z,13.40
2018-04-25T02:14:36.990Z,13.60
2018-04-25T02:16:30.283Z,13.80
2018-04-25T02:17:30.202Z,12.60
2018-04-25T02:19:23.478Z,13.30
2018-04-25T02:20:23.411Z,13.20
2018-04-25T02:22:16.704Z,12.10
2018-04-25T02:23:16.621Z,11.50
2018-04-25T02:25:09.896Z,10.90
2018-04-25T02:26:09.834Z,11.30
2018-04-25T02:28:03.128Z,11.30
2018-04-25T02:29:03.045Z,10.20
2018-04-25T02:30:56.429Z,10.50
2018-04-25T02:31:56.257Z,10.40
2018-04-25T02:33:49.553Z,10.30
2018-04-25T02:34:49.470Z,10.60
2018-04-25T02:36:42.766Z,10.10
2018-04-25T02:37:42.677Z,10.00
2018-04-25T02:39:35.955Z,10.00
2018-04-25T02:40:35.890Z,10.20
2018-04-25T02:42:29.185Z,10.50
2018-04-25T02:43:29.101Z,10.50
2018-04-25T02:45:22.482Z,10.40
2018-04-25T02:46:22.320Z,10.20
2018-04-25T02:48:15.611Z,9.90
2018-04-25T02:49:15.532Z,9.80
2018-04-25T02:51:08.908Z,10.10
2018-04-25T02:52:08.739Z,9.90
2018-04-25T02:54:02.033Z,9.80
2018-04-25T02:55:01.951Z,9.90
2018-04-25T02:56:55.246Z,10.00
2018-04-25T02:57:55.165Z,9.40
2018-04-25T02:59:48.438Z,10.20
2018-04-25T03:00:48.377Z,10.00
2018-04-25T03:02:41.671Z,10.10
2018-04-25T03:03:41.586Z,10.00
2018-04-25T03:05:34.866Z,10.50
2018-04-25T03:06:34.795Z,9.50
2018-04-25T03:08:28.091Z,9.20
2018-04-25T03:09:28.008Z,9.40
2018-04-25T03:11:21.318Z,9.80
2018-04-25T03:12:21.255Z,9.70
2018-04-25T03:14:14.654Z,9.30
2018-04-25T03:15:14.466Z,8.80
2018-04-25T03:17:07.865Z,9.60
2018-04-25T03:18:07.669Z,9.50
2018-04-25T03:20:00.943Z,10.10
2018-04-25T03:21:00.882Z,9.60
2018-04-25T03:22:54.180Z,9.90
2018-04-25T03:23:54.091Z,9.50
2018-04-25T03:25:47.366Z,9.40
2018-04-25T03:26:47.304Z,9.00
2018-04-25T03:28:40.704Z,9.40
2018-04-25T03:29:40.515Z,8.80
2018-04-25T03:31:33.789Z,9.40
2018-04-25T03:32:33.725Z,9.70
2018-04-25T03:34:27.021Z,9.30
2018-04-25T03:35:26.938Z,9.60
2018-04-25T03:37:20.232Z,9.50
2018-04-25T03:38:20.150Z,9.80
2018-04-25T03:40:13.532Z,9.60
2018-04-25T03:41:13.363Z,9.70
2018-04-25T03:43:06.764Z,9.20
2018-04-25T03:44:06.628Z,9.20
2018-04-25T03:45:59.848Z,9.00
2018-04-25T03:46:59.786Z,9.10
2018-04-25T03:48:53.080Z,9.30
2018-04-25T03:49:52.998Z,9.30
2018-04-25T03:51:46.273Z,9.10
2018-04-25T03:52:46.207Z,9.30
2018-04-25T03:54:39.505Z,9.70
2018-04-25T03:55:39.418Z,8.80
2018-04-25T03:57:32.704Z,9.00
2018-04-25T03:58:32.624Z,9.40
2018-04-25T04:00:25.897Z,9.30
2018-04-25T04:01:25.835Z,9.50
2018-04-25T04:03:19.128Z,9.40
2018-04-25T04:04:19.045Z,9.40
2018-04-25T04:06:12.319Z,9.40
2018-04-25T04:07:12.257Z,9.50
2018-04-25T04:09:05.550Z,9.60
2018-04-25T04:10:05.468Z,9.00
2018-04-25T04:11:58.741Z,8.90
2018-04-25T04:12:58.680Z,9.30
2018-04-25T04:14:52.079Z,9.40
2018-04-25T04:15:51.890Z,9.70
2018-04-25T04:17:45.175Z,9.50
2018-04-25T04:18:45.091Z,8.90
2018-04-25T04:20:38.366Z,9.50
2018-04-25T04:21:38.302Z,9.80
2018-04-25T04:23:31.700Z,9.50
2018-04-25T04:24:31.513Z,9.30
2018-04-25T04:26:24.787Z,9.80
2018-04-25T04:27:24.723Z,9.30
2018-04-25T04:29:18.017Z,9.90
2018-04-25T04:30:17.933Z,9.60
2018-04-25T04:32:11.207Z,9.50
2018-04-25T04:33:11.144Z,9.10
2018-04-25T04:35:04.437Z,8.50
2018-04-25T04:36:04.354Z,8.00
2018-04-25T04:37:57.647Z,7.80
2018-04-25T04:38:57.563Z,7.90
2018-04-25T04:40:50.839Z,7.50
2018-04-25T04:41:50.775Z,7.00
2018-04-25T04:43:44.070Z,6.00
2018-04-25T04:44:43.989Z,6.50
2018-04-25T04:46:37.319Z,6.20
2018-04-25T04:47:37.257Z,7.30
2018-04-25T04:49:30.752Z,6.00
2018-04-25T04:50:30.464Z,5.80
2018-04-25T04:52:23.738Z,6.20
2018-04-25T04:53:23.673Z,6.70
2018-04-25T04:55:16.966Z,6.30
2018-04-25T04:56:16.885Z,6.30
2018-04-25T04:58:10.177Z,6.10
2018-04-25T04:59:10.095Z,6.60
2018-04-25T05:01:03.372Z,6.20
2018-04-25T05:02:03.306Z,6.70
2018-04-25T05:03:56.601Z,7.00
2018-04-25T05:04:56.516Z,7.20
2018-04-25T05:06:49.790Z,6.40
2018-04-25T05:07:49.726Z,6.50
2018-04-25T05:09:43.012Z,6.50
2018-04-25T05:10:42.928Z,6.70
2018-04-25T05:12:36.202Z,5.50
2018-04-25T05:13:36.139Z,5.20
2018-04-25T05:15:30.550Z,5.30
2018-04-25T05:16:30.186Z,5.40
2018-04-25T05:18:23.478Z,4.70
2018-04-25T05:19:23.396Z,5.00
2018-04-25T05:21:16.664Z,4.90
2018-04-25T05:22:16.596Z,5.20
2018-04-25T05:24:09.889Z,4.60
2018-04-25T05:25:09.809Z,5.00
2018-04-25T05:27:03.074Z,4.80
2018-04-25T05:28:03.013Z,5.00
2018-04-25T05:29:56.410Z,4.90
2018-04-25T05:30:56.223Z,5.00
2018-04-25T05:32:49.487Z,4.70
2018-04-25T05:33:49.422Z,4.90
2018-04-25T05:35:42.716Z,5.10
2018-04-25T05:36:42.632Z,5.40
2018-04-25T05:38:35.982Z,4.90
2018-04-25T05:39:35.843Z,5.30
2018-04-25T05:41:29.107Z,4.80
2018-04-25T05:42:29.043Z,5.00
2018-04-25T05:44:22.335Z,5.90
2018-04-25T05:45:22.254Z,6.00
2018-04-25T05:47:15.631Z,6.30
2018-04-25T05:48:15.452Z,6.10
2018-04-25T05:50:08.851Z,6.70
2018-04-25T05:51:08.661Z,5.80
2018-04-25T05:53:01.927Z,5.40
2018-04-25T05:54:01.858Z,5.40
2018-04-25T05:55:55.147Z,5.50
2018-04-25T05:56:55.062Z,4.50
2018-04-25T05:58:48.458Z,4.70
2018-04-25T05:59:48.267Z,4.70
2018-04-25T06:01:41.541Z,4.70
2018-04-25T06:02:41.472Z,4.40
2018-04-25T06:04:35.750Z,5.10
2018-04-25T06:05:35.665Z,4.70
2018-04-25T06:07:29.043Z,4.00
2018-04-25T06:08:28.870Z,4.10
2018-04-25T06:10:22.270Z,4.30
2018-04-25T06:11:22.077Z,4.10
2018-04-25T06:13:15.333Z,3.50
2018-04-25T06:14:15.270Z,3.50
2018-04-25T06:16:08.549Z,3.50
2018-04-25T06:17:08.464Z,3.70
2018-04-25T06:19:01.763Z,3.80
2018-04-25T06:20:01.671Z,4.00
2018-04-25T06:21:54.938Z,3.70
2018-04-25T06:22:54.873Z,4.00
2018-04-25T06:24:48.152Z,4.10
2018-04-25T06:25:48.066Z,3.90
2018-04-25T06:27:41.328Z,4.40
2018-04-25T06:28:41.262Z,4.80
2018-04-25T06:30:34.553Z,4.70
2018-04-25T06:31:34.468Z,4.60
2018-04-25T06:33:27.737Z,4.50
2018-04-25T06:34:27.672Z,4.60
2018-04-25T06:36:20.962Z,4.50
2018-04-25T06:37:20.874Z,4.50
2018-04-25T06:39:14.169Z,4.60
2018-04-25T06:40:14.082Z,4.60
2018-04-25T06:42:07.355Z,4.80
2018-04-25T06:43:07.289Z,4.00
2018-04-25T06:45:00.585Z,4.40
2018-04-25T06:46:00.496Z,4.60
2018-04-25T06:47:53.763Z,4.80
2018-04-25T06:48:53.698Z,4.70
2018-04-25T06:50:47.115Z,4.80
2018-04-25T06:51:46.908Z,4.90
2018-04-25T06:53:40.289Z,4.20
2018-04-25T06:54:40.116Z,4.50
2018-04-25T06:56:33.407Z,4.70
2018-04-25T06:57:33.324Z,4.50
2018-04-25T06:59:26.616Z,4.60
2018-04-25T07:00:26.532Z,4.60
2018-04-25T07:02:19.805Z,3.80
2018-04-25T07:03:19.743Z,4.20
2018-04-25T07:05:13.141Z,4.10
2018-04-25T07:06:12.953Z,4.00
2018-04-25T07:08:06.293Z,3.90
2018-04-25T07:09:06.166Z,4.00
2018-04-25T07:10:59.459Z,3.80
2018-04-25T07:11:59.378Z,3.70
2018-04-25T07:13:52.758Z,3.80
2018-04-25T07:14:52.591Z,4.10
2018-04-25T07:16:45.885Z,3.50
2018-04-25T07:17:45.802Z,3.70
2018-04-25T07:19:39.098Z,3.70
2018-04-25T07:20:39.012Z,3.70
2018-04-25T07:22:32.401Z,3.80
2018-04-25T07:23:32.220Z,3.40
2018-04-25T07:25:25.618Z,3.80
2018-04-25T07:26:25.437Z,3.90
2018-04-25T07:28:18.711Z,4.50
2018-04-25T07:29:18.653Z,4.00
2018-04-25T07:31:11.940Z,4.20
2018-04-25T07:32:11.864Z,4.50
2018-04-25T07:34:05.135Z,4.50
2018-04-25T07:35:05.070Z,4.30
2018-04-25T07:36:58.367Z,4.30
2018-04-25T07:37:58.284Z,4.50
2018-04-25T07:39:51.682Z,4.50
2018-04-25T07:40:51.507Z,4.70
2018-04-25T07:42:44.777Z,5.00
2018-04-25T07:43:44.715Z,4.70
2018-04-25T07:45:38.008Z,4.90
2018-04-25T07:46:37.926Z,5.30
2018-04-25T07:48:31.200Z,4.90
2018-04-25T07:49:31.136Z,5.60
2018-04-25T07:51:24.433Z,4.80
2018-04-25T07:52:24.350Z,4.90
2018-04-25T07:54:17.731Z,6.00
2018-04-25T07:55:17.568Z,5.70
2018-04-25T07:57:10.853Z,5.80
2018-04-25T07:58:10.768Z,5.70
2018-04-25T08:00:04.060Z,6.00
2018-04-25T08:01:03.978Z,5.70
2018-04-25T08:02:57.356Z,6.10
2018-04-25T08:03:57.253Z,5.90
2018-04-25T08:05:50.542Z,5.70
2018-04-25T08:06:50.462Z,5.70
2018-04-25T08:08:43.840Z,6.20
2018-04-25T08:09:43.667Z,5.50
2018-04-25T08:11:36.951Z,6.00
2018-04-25T08:12:36.866Z,5.60
2018-04-25T08:14:30.206Z,5.20
2018-04-25T08:15:30.105Z,5.40
2018-04-25T08:17:23.372Z,5.00
2018-04-25T08:18:23.307Z,5.30
2018-04-25T08:20:16.611Z,5.00
2018-04-25T08:21:16.528Z,5.20
2018-04-25T08:23:09.801Z,5.20
2018-04-25T08:24:09.738Z,4.80
2018-04-25T08:26:03.111Z,5.10
2018-04-25T08:27:02.956Z,5.00
2018-04-25T08:28:56.224Z,4.40
2018-04-25T08:29:56.162Z,4.20
2018-04-25T08:31:49.459Z,4.10
2018-04-25T08:32:49.374Z,4.10
2018-04-25T08:34:42.676Z,4.50
2018-04-25T08:35:42.587Z,4.40
2018-04-25T08:37:35.877Z,4.20
2018-04-25T08:38:35.792Z,4.10
2018-04-25T08:40:29.193Z,4.50
2018-04-25T08:41:29.006Z,4.20
2018-04-25T08:43:22.281Z,4.60
2018-04-25T08:44:22.220Z,4.70
2018-04-25T08:46:15.533Z,3.90
2018-04-25T08:47:15.445Z,4.20
2018-04-25T08:49:08.721Z,3.70
2018-04-25T08:50:08.658Z,3.60
2018-04-25T08:52:02.060Z,3.00
2018-04-25T08:53:01.866Z,3.40
2018-04-25T08:54:55.180Z,3.90
2018-04-25T08:55:55.082Z,3.40
2018-04-25T08:57:48.358Z,3.70
2018-04-25T08:58:48.287Z,3.40
2018-04-25T09:00:41.575Z,3.40
2018-04-25T09:01:41.495Z,4.00
2018-04-25T09:03:34.877Z,3.20
2018-04-25T09:04:34.714Z,3.00
2018-04-25T09:06:28.013Z,3.00
2018-04-25T09:07:27.931Z,3.00
2018-04-25T09:09:21.221Z,3.20
2018-04-25T09:10:21.152Z,3.00
2018-04-25T09:12:14.454Z,2.60
2018-04-25T09:13:14.412Z,2.50
2018-04-25T09:15:07.674Z,2.40
2018-04-25T09:16:07.592Z,2.70
2018-04-25T09:18:00.880Z,2.30
2018-04-25T09:19:00.821Z,2.40
2018-04-25T09:20:54.119Z,2.70
2018-04-25T09:21:54.040Z,2.90
2018-04-25T09:23:47.423Z,2.50
2018-04-25T09:24:47.262Z,2.10
2018-04-25T09:26:40.674Z,2.20
2018-04-25T09:27:40.479Z,2.50
2018-04-25T09:29:33.763Z,2.10
2018-04-25T09:30:33.697Z,2.10
2018-04-25T09:32:27.003Z,2.20
2018-04-25T09:33:26.919Z,2.30
2018-04-25T09:35:20.321Z,2.30
2018-04-25T09:36:20.135Z,2.20
2018-04-25T09:38:13.520Z,2.20
2018-04-25T09:39:13.356Z,2.30
2018-04-25T09:41:06.655Z,2.10
2018-04-25T09:42:06.575Z,2.60
2018-04-25T09:43:59.856Z,2.30
2018-04-25T09:44:59.794Z,2.40
2018-04-25T09:46:53.081Z,2.50
2018-04-25T09:47:53.005Z,2.20
2018-04-25T09:49:46.285Z,2.20
2018-04-25T09:50:46.222Z,2.20
2018-04-25T09:52:39.624Z,2.10
2018-04-25T09:53:39.441Z,1.80
2018-04-25T09:55:32.737Z,1.90
2018-04-25T09:56:32.656Z,2.10
2018-04-25T09:58:26.040Z,2.00
2018-04-25T09:59:25.872Z,1.90
2018-04-25T10:01:19.171Z,1.70
2018-04-25T10:02:19.087Z,1.70
2018-04-25T10:04:12.468Z,1.90
2018-04-25T10:05:12.301Z,1.50
2018-04-25T10:07:05.588Z,1.90
2018-04-25T10:08:05.510Z,1.70
2018-04-25T10:09:58.889Z,1.80
2018-04-25T10:10:58.713Z,1.60
2018-04-25T10:12:52.008Z,2.00
2018-04-25T10:13:51.926Z,2.20
2018-04-25T10:15:45.229Z,2.20
2018-04-25T10:16:45.142Z,2.20
2018-04-25T10:18:38.425Z,1.70
2018-04-25T10:19:38.358Z,1.80
2018-04-25T10:21:31.755Z,2.20
2018-04-25T10:22:31.568Z,2.00
2018-04-25T10:24:24.843Z,2.30
2018-04-25T10:25:24.781Z,2.30
2018-04-25T10:27:18.076Z,2.20
2018-04-25T10:28:17.994Z,2.30
2018-04-25T10:30:11.317Z,2.40
2018-04-25T10:31:11.255Z,2.50
2018-04-25T10:33:04.654Z,2.40
2018-04-25T10:34:04.465Z,2.00
2018-04-25T10:35:57.867Z,2.10
2018-04-25T10:36:57.680Z,2.40
2018-04-25T10:38:51.005Z,2.30
2018-04-25T10:39:50.897Z,2.20
2018-04-25T10:41:44.195Z,2.40
2018-04-25T10:42:44.108Z,2.10
2018-04-25T10:44:37.381Z,2.40
2018-04-25T10:45:37.320Z,2.40
2018-04-25T10:47:30.605Z,2.50
2018-04-25T10:48:30.524Z,2.50
2018-04-25T10:50:23.802Z,2.20
2018-04-25T10:51:23.737Z,2.40
2018-04-25T10:53:17.032Z,2.20
2018-04-25T10:54:16.949Z,2.50
2018-04-25T10:56:10.244Z,2.70
2018-04-25T10:57:10.162Z,2.40
2018-04-25T10:59:03.438Z,2.10
2018-04-25T11:00:03.376Z,2.30
2018-04-25T11:01:56.776Z,2.60
2018-04-25T11:02:56.590Z,2.70
2018-04-25T11:04:49.970Z,2.60
2018-04-25T11:05:49.803Z,2.40
2018-04-25T11:07:43.090Z,2.20
2018-04-25T11:08:43.010Z,2.10
2018-04-25T11:10:36.283Z,2.50
2018-04-25T11:11:36.225Z,2.60
2018-04-25T11:13:29.526Z,2.30
2018-04-25T11:14:29.442Z,2.90
2018-04-25T11:16:22.843Z,2.50
2018-04-25T11:17:22.658Z,2.50
2018-04-25T11:19:15.936Z,2.70
2018-04-25T11:20:15.890Z,2.40
2018-04-25T11:22:09.173Z,3.20
2018-04-25T11:23:09.090Z,2.80
2018-04-25T11:25:02.368Z,2.50
2018-04-25T11:26:02.305Z,2.90
2018-04-25T11:27:55.604Z,2.90
2018-04-25T11:28:55.528Z,2.90
2018-04-25T11:30:48.912Z,2.80
2018-04-25T11:31:48.747Z,2.80
2018-04-25T11:33:42.033Z,2.90
2018-04-25T11:34:41.950Z,3.00
2018-04-25T11:36:35.247Z,3.10
2018-04-25T11:37:35.169Z,2.80
2018-04-25T11:39:28.438Z,3.00
2018-04-25T11:40:28.378Z,3.20
2018-04-25T11:42:21.671Z,2.90
2018-04-25T11:43:21.590Z,2.70
2018-04-25T11:45:14.971Z,2.90
2018-04-25T11:46:14.798Z,3.20
2018-04-25T11:48:08.097Z,2.40
2018-04-25T11:49:08.015Z,2.80
2018-04-25T11:51:01.320Z,2.90
2018-04-25T11:52:01.250Z,3.20
2018-04-25T11:53:54.545Z,2.90
2018-04-25T11:54:54.462Z,3.10
2018-04-25T11:56:47.763Z,2.90
2018-04-25T11:57:47.678Z,2.80
2018-04-25T11:59:40.981Z,3.10
2018-04-25T12:00:40.892Z,2.90
2018-04-25T12:02:34.182Z,2.80
2018-04-25T12:03:34.101Z,2.80
2018-04-25T12:05:27.481Z,2.60
2018-04-25T12:06:27.313Z,3.00
2018-04-25T12:08:20.714Z,2.70
2018-04-25T12:09:20.523Z,2.80
2018-04-25T12:11:13.800Z,3.10
2018-04-25T12:12:13.736Z,2.80
2018-04-25T12:14:07.066Z,2.70
2018-04-25T12:15:06.951Z,2.60
2018-04-25T12:17:00.351Z,2.90
2018-04-25T12:18:00.157Z,3.10
2018-04-25T12:19:53.540Z,2.80
2018-04-25T12:20:53.368Z,2.80
2018-04-25T12:22:46.768Z,2.90
2018-04-25T12:23:46.581Z,2.70
2018-04-25T12:25:39.963Z,3.30
2018-04-25T12:26:39.790Z,2.80
2018-04-25T12:28:33.192Z,2.80
2018-04-25T12:29:33.007Z,3.30
2018-04-25T12:31:26.281Z,2.60
2018-04-25T12:32:26.218Z,2.90
2018-04-25T12:34:19.515Z,4.00
2018-04-25T12:35:19.426Z,3.70
2018-04-25T12:37:12.831Z,2.50
2018-04-25T12:38:12.646Z,2.60
2018-04-25T12:40:06.025Z,3.20
2018-04-25T12:41:05.858Z,3.30
2018-04-25T12:42:59.172Z,3.10
2018-04-25T12:43:59.090Z,3.00
2018-04-25T12:45:52.365Z,3.40
2018-04-25T12:46:52.302Z,3.70
2018-04-25T12:48:45.707Z,4.20
2018-04-25T12:49:45.514Z,4.00
2018-04-25T12:51:38.788Z,3.50
2018-04-25T12:52:38.748Z,3.10
2018-04-25T12:54:32.128Z,3.30
2018-04-25T12:55:31.941Z,3.30
2018-04-25T12:57:25.239Z,3.50
2018-04-25T12:58:25.158Z,3.40
2018-04-25T13:00:18.538Z,3.80
2018-04-25T13:01:18.369Z,3.40
2018-04-25T13:03:11.663Z,3.60
2018-04-25T13:04:11.583Z,4.20
2018-04-25T13:06:04.862Z,3.50
2018-04-25T13:07:04.797Z,3.50
2018-04-25T13:08:58.152Z,3.50
2018-04-25T13:09:58.009Z,3.60
2018-04-25T13:11:51.316Z,3.60
2018-04-25T13:12:51.253Z,4.10
2018-04-25T13:14:44.550Z,4.20
2018-04-25T13:15:44.468Z,4.30
2018-04-25T13:17:37.873Z,4.20
2018-04-25T13:18:37.684Z,4.50
2018-04-25T13:20:31.065Z,4.70
2018-04-25T13:21:30.899Z,5.00
2018-04-25T13:23:24.194Z,4.40
2018-04-25T13:24:24.113Z,5.00
2018-04-25T13:26:17.391Z,4.70
2018-04-25T13:27:17.328Z,5.20
2018-04-25T13:29:10.624Z,4.80
2018-04-25T13:30:10.543Z,5.30
2018-04-25T13:32:03.818Z,5.70
2018-04-25T13:33:03.757Z,4.90
2018-04-25T13:34:57.158Z,4.70
2018-04-25T13:35:57.095Z,4.90
2018-04-25T13:37:50.283Z,4.40
2018-04-25T13:38:50.198Z,5.10
2018-04-25T13:40:43.509Z,4.90
2018-04-25T13:41:43.405Z,4.80
2018-04-25T13:43:36.702Z,5.40
2018-04-25T13:44:36.620Z,5.30
2018-04-25T13:46:30.003Z,5.30
2018-04-25T13:47:29.835Z,5.50
2018-04-25T13:49:23.129Z,5.20
2018-04-25T13:50:23.049Z,5.00
2018-04-25T13:52:16.349Z,5.10
2018-04-25T13:53:16.285Z,4.60
2018-04-25T13:55:09.576Z,5.30
2018-04-25T13:56:09.495Z,5.20
2018-04-25T13:58:02.819Z,5.30
2018-04-25T13:59:02.727Z,4.80
2018-04-25T14:00:56.105Z,5.20
2018-04-25T14:01:55.930Z,5.20
2018-04-25T14:03:49.235Z,5.20
2018-04-25T14:04:49.153Z,5.10
2018-04-25T14:06:42.434Z,5.30
2018-04-25T14:07:42.372Z,5.60
2018-04-25T14:09:35.667Z,5.50
2018-04-25T14:10:35.583Z,5.30
2018-04-25T14:12:28.861Z,4.80
2018-04-25T14:13:28.797Z,4.80
2018-04-25T14:15:22.198Z,5.50
2018-04-25T14:16:22.010Z,5.30
2018-04-25T14:18:15.410Z,4.60
2018-04-25T14:19:15.251Z,4.70
2018-04-25T14:21:08.632Z,4.80
2018-04-25T14:22:08.465Z,5.20
2018-04-25T14:24:01.761Z,5.10
2018-04-25T14:25:01.678Z,5.00
2018-04-25T14:26:55.062Z,5.20
2018-04-25T14:27:54.882Z,4.70
2018-04-25T14:29:48.282Z,4.80
2018-04-25T14:30:48.095Z,4.60
2018-04-25T14:32:41.369Z,4.80
2018-04-25T14:33:41.308Z,6.20
2018-04-25T14:35:34.603Z,4.60
2018-04-25T14:36:34.519Z,4.30
2018-04-25T14:38:27.814Z,4.70
2018-04-25T14:39:27.736Z,4.80
2018-04-25T14:41:22.005Z,4.90
2018-04-25T14:42:21.944Z,4.90
2018-04-25T14:44:15.239Z,4.70
2018-04-25T14:45:15.156Z,4.10
2018-04-25T14:47:08.434Z,4.20
2018-04-25T14:48:08.370Z,3.90
2018-04-25T14:50:01.669Z,4.10
2018-04-25T14:51:01.588Z,4.20
2018-04-25T14:52:54.973Z,4.20
2018-04-25T14:53:54.796Z,3.90
2018-04-25T14:55:48.200Z,4.30
2018-04-25T14:56:48.010Z,4.20
2018-04-25T14:58:41.335Z,4.50
2018-04-25T14:59:41.252Z,4.40
2018-04-25T15:01:34.706Z,4.00
2018-04-25T15:02:34.466Z,4.20
2018-04-25T15:04:27.761Z,4.00
2018-04-25T15:05:27.679Z,3.70
2018-04-25T15:07:20.954Z,4.10
2018-04-25T15:08:20.890Z,4.10
2018-04-25T15:10:14.210Z,4.60
2018-04-25T15:11:14.125Z,4.70
2018-04-25T15:13:07.402Z,4.70
2018-04-25T15:14:07.340Z,4.50
2018-04-25T15:16:00.634Z,4.60
2018-04-25T15:17:00.549Z,4.30
2018-04-25T15:18:53.845Z,4.70
2018-04-25T15:19:53.816Z,4.70
2018-04-25T15:21:47.037Z,4.30
2018-04-25T15:22:46.974Z,4.30
2018-04-25T15:24:40.267Z,5.10
2018-04-25T15:25:40.197Z,4.60
2018-04-25T15:27:33.453Z,4.60
2018-04-25T15:28:33.388Z,4.80
2018-04-25T15:30:26.684Z,4.70
2018-04-25T15:31:26.599Z,4.80
2018-04-25T15:33:19.879Z,4.30
2018-04-25T15:34:19.815Z,4.30
2018-04-25T15:36:13.109Z,4.40
2018-04-25T15:37:13.026Z,4.20
2018-04-25T15:39:06.321Z,4.40
2018-04-25T15:40:06.239Z,4.20
2018-04-25T15:41:59.517Z,3.90
2018-04-25T15:42:59.450Z,4.00
2018-04-25T15:44:52.749Z,4.40
2018-04-25T15:45:52.666Z,4.30
2018-04-25T15:47:46.048Z,4.50
2018-04-25T15:48:45.880Z,4.20
2018-04-25T15:50:39.280Z,4.20
2018-04-25T15:51:39.093Z,4.10
2018-04-25T15:53:32.369Z,4.40
2018-04-25T15:54:32.305Z,4.70
2018-04-25T15:56:25.602Z,5.10
2018-04-25T15:57:25.524Z,5.10
2018-04-25T15:59:18.818Z,4.90
2018-04-25T16:00:18.733Z,4.70
2018-04-25T16:02:12.021Z,5.40
2018-04-25T16:03:11.946Z,4.60
2018-04-25T16:05:05.240Z,4.80
2018-04-25T16:06:05.160Z,4.60
2018-04-25T16:07:58.438Z,4.40
2018-04-25T16:08:58.373Z,4.90
2018-04-25T16:10:51.699Z,4.40
2018-04-25T16:11:51.619Z,4.00
2018-04-25T16:13:44.997Z,4.50
2018-04-25T16:14:44.833Z,4.50
2018-04-25T16:16:38.123Z,4.20
2018-04-25T16:17:38.041Z,4.30
2018-04-25T16:19:31.339Z,4.20
2018-04-25T16:20:31.256Z,4.00
2018-04-25T16:22:24.535Z,4.10
2018-04-25T16:23:24.476Z,4.80
2018-04-25T16:25:17.767Z,4.10
2018-04-25T16:26:17.684Z,3.80
2018-04-25T16:28:10.964Z,4.40
2018-04-25T16:29:10.899Z,4.00
2018-04-25T16:31:04.193Z,3.50
2018-04-25T16:32:04.111Z,4.20
2018-04-25T16:33:57.387Z,3.60
2018-04-25T16:34:57.324Z,4.00
2018-04-25T16:36:50.623Z,3.90
2018-04-25T16:37:50.535Z,4.20
2018-04-25T16:39:43.832Z,3.90
2018-04-25T16:40:43.747Z,3.50
2018-04-25T16:42:37.024Z,3.10
2018-04-25T16:43:36.962Z,3.20
2018-04-25T16:45:30.273Z,2.80
2018-04-25T16:46:30.183Z,2.70
2018-04-25T16:48:23.458Z,2.70
2018-04-25T16:49:23.392Z,3.00
2018-04-25T16:51:16.698Z,2.60
2018-04-25T16:52:16.614Z,2.60
2018-04-25T16:54:09.908Z,2.60
2018-04-25T16:55:09.843Z,2.80
2018-04-25T16:57:03.166Z,2.70
2018-04-25T16:58:03.047Z,2.40
2018-04-25T16:59:56.340Z,2.40
2018-04-25T17:00:56.267Z,2.60
2018-04-25T17:02:49.532Z,2.40
2018-04-25T17:03:49.470Z,3.00
2018-04-25T17:05:42.869Z,2.60
2018-04-25T17:06:42.682Z,2.50
2018-04-25T17:08:35.955Z,2.50
2018-04-25T17:09:35.970Z,2.50
2018-04-25T17:11:29.191Z,2.40
2018-04-25T17:12:29.106Z,2.50
2018-04-25T17:14:22.380Z,2.10
2018-04-25T17:15:22.317Z,2.50
2018-04-25T17:17:15.603Z,2.90
2018-04-25T17:18:15.521Z,2.70
2018-04-25T17:20:08.817Z,2.60
2018-04-25T17:21:08.732Z,2.40
2018-04-25T17:23:02.050Z,2.70
2018-04-25T17:24:01.948Z,2.40
2018-04-25T17:25:55.343Z,2.80
2018-04-25T17:26:55.156Z,2.50
2018-04-25T17:28:48.488Z,2.60
2018-04-25T17:29:48.366Z,2.20
2018-04-25T17:31:41.659Z,2.70
2018-04-25T17:32:41.577Z,2.70
2018-04-25T17:34:34.857Z,2.50
2018-04-25T17:35:34.791Z,2.70
2018-04-25T17:37:28.077Z,2.60
2018-04-25T17:38:27.993Z,2.50
2018-04-25T17:40:21.394Z,2.70
2018-04-25T17:41:21.250Z,3.10
2018-04-25T17:43:14.527Z,2.50
2018-04-25T17:44:14.460Z,2.70
2018-04-25T17:46:07.753Z,2.40
2018-04-25T17:47:07.670Z,2.80
2018-04-25T17:49:00.944Z,2.60
2018-04-25T17:50:00.881Z,2.40
2018-04-25T17:51:54.174Z,2.60
2018-04-25T17:52:54.090Z,2.50
2018-04-25T17:54:47.368Z,2.50
2018-04-25T17:55:47.305Z,2.50
2018-04-25T17:57:40.590Z,2.40
2018-04-25T17:58:40.504Z,3.00
2018-04-25T18:00:33.798Z,2.40
2018-04-25T18:01:33.719Z,2.60
2018-04-25T18:03:27.120Z,2.50
2018-04-25T18:04:26.922Z,2.50
2018-04-25T18:06:20.215Z,2.40
2018-04-25T18:07:20.133Z,2.30
2018-04-25T18:09:13.406Z,2.90
2018-04-25T18:10:13.347Z,2.80
2018-04-25T18:12:06.636Z,2.70
2018-04-25T18:13:06.550Z,3.70
2018-04-25T18:14:59.824Z,2.60
2018-04-25T18:15:59.757Z,3.20
2018-04-25T18:17:53.048Z,3.00
2018-04-25T18:18:52.960Z,2.80
2018-04-25T18:20:46.253Z,3.20
2018-04-25T18:21:46.175Z,3.10
2018-04-25T18:23:39.441Z,2.70
2018-04-25T18:24:39.377Z,2.90
2018-04-25T18:26:32.783Z,3.00
2018-04-25T18:27:32.586Z,2.80
2018-04-25T18:29:25.859Z,3.00
2018-04-25T18:30:25.808Z,3.20
2018-04-25T18:32:19.084Z,3.30
2018-04-25T18:33:19.000Z,3.20
2018-04-25T18:35:12.277Z,3.20
2018-04-25T18:36:12.210Z,2.80
2018-04-25T18:38:05.502Z,3.50
2018-04-25T18:39:05.418Z,3.20
2018-04-25T18:40:58.709Z,3.40
2018-04-25T18:41:58.625Z,3.00
2018-04-25T18:43:51.927Z,3.10
2018-04-25T18:44:51.831Z,3.50
2018-04-25T18:46:45.121Z,3.10
2018-04-25T18:47:45.039Z,3.10
2018-04-25T18:49:38.310Z,3.40
2018-04-25T18:50:38.245Z,3.30
2018-04-25T18:52:31.540Z,3.80
2018-04-25T18:53:31.453Z,3.40
2018-04-25T18:55:24.830Z,3.40
2018-04-25T18:56:24.661Z,3.30
2018-04-25T18:58:17.952Z,3.20
2018-04-25T18:59:17.866Z,3.20
2018-04-25T19:01:11.158Z,3.40
2018-04-25T19:02:11.075Z,3.40
2018-04-25T19:04:04.346Z,3.30
2018-04-25T19:05:04.283Z,3.10
2018-04-25T19:06:57.564Z,3.40